createdAt,value
2023-05-25T00:00:06.622Z,1.80
2023-05-25T00:02:36.209Z,1.67
2023-05-25T00:05:05.221Z,1.80
2023-05-25T00:07:34.144Z,1.95
2023-05-25T00:10:02.700Z,1.80
2023-05-25T00:12:32.726Z,1.83
2023-05-25T00:15:01.420Z,1.80
2023-05-25T00:17:32.259Z,1.80
2023-05-25T00:20:08.341Z,1.98
2023-05-25T00:22:37.391Z,1.98
2023-05-25T00:25:07.076Z,1.80
2023-05-25T00:27:37.109Z,1.60
2023-05-25T00:30:06.123Z,1.70
2023-05-25T00:32:34.511Z,1.73
2023-05-25T00:35:02.851Z,1.60
2023-05-25T00:37:31.415Z,1.70
2023-05-25T00:39:59.875Z,1.60
2023-05-25T00:42:29.557Z,1.70
2023-05-25T00:44:59.651Z,1.60
2023-05-25T00:47:29.035Z,1.50
2023-05-25T00:49:57.986Z,1.70
2023-05-25T00:52:27.456Z,1.58
2023-05-25T00:54:57.351Z,1.52
2023-05-25T00:57:29.309Z,1.77
2023-05-25T01:00:00.978Z,1.77
2023-05-25T01:02:31.418Z,1.60
2023-05-25T01:05:04.286Z,1.88
2023-05-25T01:07:35.268Z,1.50
2023-05-25T01:10:08.126Z,1.50
2023-05-25T01:12:40.030Z,1.73
2023-05-25T01:15:11.789Z,1.98
2023-05-25T01:17:40.715Z,1.63
2023-05-25T01:20:13.164Z,1.92
2023-05-25T01:22:48.085Z,2.00
2023-05-25T01:25:24.073Z,1.98
2023-05-25T01:27:59.166Z,2.00
2023-05-25T01:30:28.205Z,2.03
2023-05-25T01:32:57.937Z,2.03
2023-05-25T01:35:26.949Z,2.10
2023-05-25T01:37:57.215Z,1.80
2023-05-25T01:40:26.015Z,1.88
2023-05-25T01:42:54.592Z,2.10
2023-05-25T01:45:23.667Z,2.05
2023-05-25T01:48:09.755Z,2.08
2023-05-25T01:50:45.290Z,1.95
2023-05-25T01:53:21.409Z,1.77
2023-05-25T01:55:57.543Z,2.08
2023-05-25T01:58:28.729Z,2.35
2023-05-25T02:00:58.677Z,2.20
2023-05-25T02:03:27.364Z,2.00
2023-05-25T02:05:58.062Z,2.30
2023-05-25T02:08:28.156Z,2.30
2023-05-25T02:10:56.896Z,2.13
2023-05-25T02:13:25.318Z,2.38
2023-05-25T02:15:55.111Z,2.40
2023-05-25T02:18:23.838Z,2.10
2023-05-25T02:20:52.456Z,2.72
2023-05-25T02:23:21.156Z,2.60
2023-05-25T02:25:52.225Z,2.38
2023-05-25T02:28:20.894Z,2.67
2023-05-25T02:30:49.524Z,2.90
2023-05-25T02:33:19.075Z,2.90
2023-05-25T02:35:47.906Z,2.80
2023-05-25T02:38:16.525Z,2.50
2023-05-25T02:40:47.773Z,2.83
2023-05-25T02:43:19.293Z,2.72
2023-05-25T02:45:47.698Z,2.65
2023-05-25T02:48:16.234Z,2.50
2023-05-25T02:50:44.853Z,2.58
2023-05-25T02:53:13.426Z,2.65
2023-05-25T02:55:43.836Z,3.08
2023-05-25T02:58:12.594Z,2.92
2023-05-25T03:00:43.357Z,2.90
2023-05-25T03:03:12.091Z,3.05
2023-05-25T03:05:40.999Z,2.88
2023-05-25T03:08:09.590Z,3.20
2023-05-25T03:10:38.157Z,3.38
2023-05-25T03:13:07.029Z,3.05
2023-05-25T03:15:35.784Z,2.95
2023-05-25T03:18:05.965Z,3.10
2023-05-25T03:20:35.014Z,3.20
2023-05-25T03:23:03.644Z,2.90
2023-05-25T03:25:32.254Z,3.00
2023-05-25T03:28:00.887Z,2.88
2023-05-25T03:30:30.208Z,3.03
2023-05-25T03:32:58.905Z,3.47
2023-05-25T03:35:28.786Z,3.20
2023-05-25T03:37:57.258Z,3.17
2023-05-25T03:40:25.782Z,3.35
2023-05-25T03:42:54.447Z,3.10
2023-05-25T03:45:22.963Z,3.17
2023-05-25T03:47:51.416Z,3.28
2023-05-25T03:50:20.237Z,3.22
2023-05-25T03:52:50.310Z,3.70
2023-05-25T03:55:20.074Z,3.60
2023-05-25T03:57:48.607Z,3.30
2023-05-25T04:00:17.845Z,3.17
2023-05-25T04:02:46.623Z,3.10
2023-05-25T04:05:15.545Z,3.03
2023-05-25T04:07:44.630Z,3.53
2023-05-25T04:10:14.978Z,2.78
2023-05-25T04:12:43.660Z,3.35
2023-05-25T04:15:14.600Z,2.90
2023-05-25T04:17:42.946Z,3.15
2023-05-25T04:20:12.293Z,3.40
2023-05-25T04:22:40.913Z,2.95
2023-05-25T04:25:11.025Z,3.13
2023-05-25T04:27:42.530Z,3.75
2023-05-25T04:30:12.675Z,3.33
2023-05-25T04:32:43.917Z,3.50
2023-05-25T04:35:15.413Z,3.95
2023-05-25T04:37:44.660Z,3.45
2023-05-25T04:40:14.537Z,3.70
2023-05-25T04:42:45.213Z,3.42
2023-05-25T04:45:17.734Z,3.40
2023-05-25T04:47:47.713Z,3.58
2023-05-25T04:50:16.467Z,3.40
2023-05-25T04:52:45.189Z,3.40
2023-05-25T04:55:13.605Z,3.63
2023-05-25T04:57:43.818Z,4.00
2023-05-25T05:00:15.572Z,3.30
2023-05-25T05:02:44.310Z,3.30
2023-05-25T05:05:13.282Z,3.25
2023-05-25T05:07:41.986Z,3.50
2023-05-25T05:10:10.927Z,3.67
2023-05-25T05:12:39.504Z,3.40
2023-05-25T05:15:10.218Z,3.25
2023-05-25T05:17:38.802Z,3.30
2023-05-25T05:20:09.338Z,3.97
2023-05-25T05:22:39.734Z,3.47
2023-05-25T05:25:09.328Z,3.45
2023-05-25T05:27:38.304Z,3.65
2023-05-25T05:30:10.743Z,3.30
2023-05-25T05:32:39.345Z,3.42
2023-05-25T05:35:08.547Z,3.78
2023-05-25T05:37:37.290Z,3.65
2023-05-25T05:40:06.966Z,3.75
2023-05-25T05:42:35.677Z,3.80
2023-05-25T05:45:04.443Z,3.58
2023-05-25T05:47:34.801Z,3.67
2023-05-25T05:50:04.162Z,3.80
2023-05-25T05:52:32.763Z,3.67
2023-05-25T05:55:01.376Z,3.97
2023-05-25T05:57:29.953Z,3.67
2023-05-25T05:59:58.597Z,3.83
2023-05-25T06:02:27.615Z,3.60
2023-05-25T06:04:57.619Z,3.63
2023-05-25T06:07:27.175Z,3.63
2023-05-25T06:09:56.467Z,3.60
2023-05-25T06:12:24.822Z,3.60
2023-05-25T06:14:53.646Z,3.35
2023-05-25T06:17:22.280Z,4.35
2023-05-25T06:19:51.544Z,3.75
2023-05-25T06:22:22.307Z,3.95
2023-05-25T06:24:51.137Z,4.35
2023-05-25T06:27:19.649Z,3.50
2023-05-25T06:29:48.190Z,3.70
2023-05-25T06:32:17.037Z,3.58
2023-05-25T06:34:45.452Z,3.80
2023-05-25T06:37:15.355Z,4.13
2023-05-25T06:39:45.449Z,4.05
2023-05-25T06:42:13.782Z,4.22
2023-05-25T06:44:42.564Z,3.95
2023-05-25T06:47:10.942Z,4.20
2023-05-25T06:49:39.309Z,3.15
2023-05-25T06:52:07.988Z,4.05
2023-05-25T06:54:36.511Z,3.97
2023-05-25T06:57:06.930Z,3.90
2023-05-25T06:59:35.570Z,3.85
2023-05-25T07:02:03.933Z,3.67
2023-05-25T07:04:33.497Z,3.80
2023-05-25T07:07:02.060Z,4.32
2023-05-25T07:09:30.508Z,4.35
2023-05-25T07:11:58.892Z,3.90
2023-05-25T07:14:29.078Z,4.03
2023-05-25T07:16:57.813Z,4.43
2023-05-25T07:19:26.259Z,3.95
2023-05-25T07:21:54.858Z,4.15
2023-05-25T07:24:23.273Z,3.75
2023-05-25T07:26:51.946Z,3.67
2023-05-25T07:29:20.536Z,3.83
2023-05-25T07:31:50.517Z,4.00
2023-05-25T07:34:21.011Z,4.28
2023-05-25T07:36:49.731Z,3.60
2023-05-25T07:39:18.482Z,4.00
2023-05-25T07:41:47.925Z,3.78
2023-05-25T07:44:16.330Z,3.90
2023-05-25T07:46:45.536Z,3.75
2023-05-25T07:49:16.530Z,3.28
2023-05-25T07:51:45.533Z,4.18
2023-05-25T07:54:14.076Z,3.53
2023-05-25T07:56:42.748Z,4.10
2023-05-25T07:59:12.642Z,3.65
2023-05-25T08:01:41.304Z,3.22
2023-05-25T08:04:09.752Z,3.25
2023-05-25T08:06:40.427Z,3.33
2023-05-25T08:09:10.093Z,3.65
2023-05-25T08:11:38.662Z,3.40
2023-05-25T08:14:07.738Z,3.42
2023-05-25T08:16:37.371Z,3.25
2023-05-25T08:19:05.992Z,3.13
2023-05-25T08:21:35.452Z,2.95
2023-05-25T08:24:08.505Z,3.25
2023-05-25T08:26:52.876Z,3.65
2023-05-25T08:29:23.002Z,3.88
2023-05-25T08:31:52.221Z,3.13
2023-05-25T08:34:20.909Z,3.53
2023-05-25T08:36:49.970Z,3.15
2023-05-25T08:39:20.110Z,3.22
2023-05-25T08:41:48.613Z,3.13
2023-05-25T08:44:17.153Z,2.95
2023-05-25T08:46:49.771Z,3.40
2023-05-25T08:49:19.301Z,3.22
2023-05-25T08:51:52.861Z,3.47
2023-05-25T08:54:30.887Z,3.10
2023-05-25T08:57:07.067Z,2.90
2023-05-25T08:59:44.918Z,2.88
2023-05-25T09:02:24.283Z,3.42
2023-05-25T09:04:52.988Z,3.35
2023-05-25T09:07:22.712Z,3.25
2023-05-25T09:09:53.466Z,3.40
2023-05-25T09:12:23.806Z,3.17
2023-05-25T09:14:52.860Z,2.80
2023-05-25T09:17:21.990Z,3.08
2023-05-25T09:19:51.607Z,2.95
2023-05-25T09:22:20.323Z,3.13
2023-05-25T09:24:49.267Z,2.95
2023-05-25T09:27:21.715Z,3.50
2023-05-25T09:29:51.798Z,2.92
2023-05-25T09:32:21.379Z,3.28
2023-05-25T09:34:50.273Z,3.35
2023-05-25T09:37:20.268Z,3.20
2023-05-25T09:39:49.178Z,2.92
2023-05-25T09:42:19.423Z,2.97
2023-05-25T09:44:47.861Z,2.40
2023-05-25T09:47:18.379Z,2.88
2023-05-25T09:49:48.319Z,2.30
2023-05-25T09:52:17.214Z,3.03
2023-05-25T09:54:47.609Z,2.92
2023-05-25T09:57:17.359Z,2.50
2023-05-25T09:59:48.060Z,2.58
2023-05-25T10:02:16.757Z,2.80
2023-05-25T10:04:46.780Z,3.00
2023-05-25T10:07:16.506Z,2.40
2023-05-25T10:09:48.542Z,2.40
2023-05-25T10:12:21.142Z,2.85
2023-05-25T10:14:52.925Z,2.25
2023-05-25T10:17:25.706Z,2.75
2023-05-25T10:19:58.961Z,2.60
2023-05-25T10:22:34.203Z,2.67
2023-05-25T10:25:10.980Z,2.67
2023-05-25T10:27:43.186Z,2.63
2023-05-25T10:30:16.415Z,2.70
2023-05-25T10:32:46.310Z,2.50
2023-05-25T10:35:16.047Z,2.72
2023-05-25T10:37:46.768Z,2.83
2023-05-25T10:40:15.800Z,2.70
2023-05-25T10:42:47.594Z,2.97
2023-05-25T10:45:18.506Z,2.10
2023-05-25T10:47:48.013Z,2.60
2023-05-25T10:50:25.109Z,2.92
2023-05-25T10:53:01.601Z,2.45
2023-05-25T10:55:45.029Z,2.17
2023-05-25T10:58:15.876Z,2.22
2023-05-25T11:00:59.662Z,2.03
2023-05-25T11:03:50.885Z,2.33
2023-05-25T11:06:21.975Z,2.50
2023-05-25T11:08:53.280Z,2.00
2023-05-25T11:11:22.578Z,2.15
2023-05-25T11:13:51.978Z,2.35
2023-05-25T11:16:24.709Z,2.22
2023-05-25T11:18:56.039Z,2.78
2023-05-25T11:21:40.799Z,1.95
2023-05-25T11:24:14.852Z,2.33
2023-05-25T11:27:01.816Z,2.55
2023-05-25T11:29:33.281Z,2.40
2023-05-25T11:32:03.527Z,2.35
2023-05-25T11:34:34.258Z,2.40
2023-05-25T11:37:04.042Z,2.30
2023-05-25T11:40:28.945Z,2.15
2023-05-25T11:43:00.923Z,2.85
2023-05-25T11:45:35.017Z,2.55
2023-05-25T11:48:06.313Z,2.58
2023-05-25T11:50:34.915Z,2.90
2023-05-25T11:53:07.433Z,2.33
2023-05-25T11:55:36.523Z,2.90
2023-05-25T11:58:04.968Z,2.30
2023-05-25T12:00:33.464Z,2.50
2023-05-25T12:03:02.564Z,2.25
2023-05-25T12:05:40.812Z,2.60
2023-05-25T12:08:10.285Z,2.42
2023-05-25T12:10:51.581Z,2.40
2023-05-25T12:13:20.390Z,2.50
2023-05-25T12:15:49.454Z,2.10
2023-05-25T12:18:19.095Z,2.50
2023-05-25T12:20:49.603Z,2.85
2023-05-25T12:23:18.905Z,2.30
2023-05-25T12:25:51.252Z,3.20
2023-05-25T12:28:20.461Z,2.50
2023-05-25T12:30:49.646Z,2.50
2023-05-25T12:33:18.299Z,2.30
2023-05-25T12:35:49.664Z,2.13
2023-05-25T12:38:20.141Z,1.92
2023-05-25T12:40:49.947Z,2.00
2023-05-25T12:43:18.692Z,2.38
2023-05-25T12:45:48.615Z,2.05
2023-05-25T12:48:17.094Z,2.00
2023-05-25T12:51:02.747Z,2.30
2023-05-25T12:53:31.531Z,2.13
2023-05-25T12:56:04.153Z,2.20
2023-05-25T12:58:33.008Z,2.40
2023-05-25T13:01:02.023Z,2.25
2023-05-25T13:03:31.073Z,2.22
2023-05-25T13:06:05.069Z,2.10
2023-05-25T13:08:33.627Z,2.35
2023-05-25T13:11:03.921Z,2.10
2023-05-25T13:13:32.417Z,2.45
2023-05-25T13:16:01.432Z,2.40
2023-05-25T13:18:30.052Z,2.05
2023-05-25T13:21:00.857Z,1.80
2023-05-25T13:23:31.290Z,1.83
2023-05-25T13:25:59.748Z,2.30
2023-05-25T13:28:28.421Z,2.13
2023-05-25T13:30:56.852Z,2.00
2023-05-25T13:33:25.787Z,1.88
2023-05-25T13:36:08.281Z,1.95
2023-05-25T13:38:39.782Z,1.60
2023-05-25T13:41:08.981Z,2.25
2023-05-25T13:43:38.154Z,1.83
2023-05-25T13:46:07.691Z,2.08
2023-05-25T13:48:38.112Z,1.98
2023-05-25T13:51:06.866Z,2.42
2023-05-25T13:53:35.538Z,2.10
2023-05-25T13:56:05.508Z,3.33
2023-05-25T13:58:33.971Z,3.72
2023-05-25T14:01:02.597Z,4.25
2023-05-25T14:03:31.600Z,4.20
2023-05-25T14:06:00.096Z,4.13
2023-05-25T14:08:28.953Z,3.88
2023-05-25T14:10:57.288Z,3.75
2023-05-25T14:13:27.162Z,3.80
2023-05-25T14:15:55.752Z,4.32
2023-05-25T14:18:24.833Z,3.67
2023-05-25T14:20:53.998Z,4.25
2023-05-25T14:23:24.408Z,3.83
2023-05-25T14:25:53.391Z,4.55
2023-05-25T14:28:22.294Z,4.18
2023-05-25T14:30:53.449Z,4.22
2023-05-25T14:33:22.528Z,3.92
2023-05-25T14:35:54.027Z,4.38
2023-05-25T14:38:22.657Z,3.88
2023-05-25T14:40:51.638Z,4.10
2023-05-25T14:43:20.262Z,4.38
2023-05-25T14:45:48.780Z,4.15
2023-05-25T14:48:23.505Z,4.00
2023-05-25T14:50:52.082Z,3.88
2023-05-25T14:53:20.937Z,3.47
2023-05-25T14:55:49.435Z,4.20
2023-05-25T14:58:18.130Z,3.95
2023-05-25T15:00:46.970Z,4.40
2023-05-25T15:03:15.513Z,4.75
2023-05-25T15:05:45.515Z,4.13
2023-05-25T15:08:14.217Z,4.07
2023-05-25T15:10:42.536Z,4.45
2023-05-25T15:13:12.587Z,4.00
2023-05-25T15:15:42.164Z,4.22
2023-05-25T15:18:10.966Z,4.05
2023-05-25T15:20:39.532Z,3.88
2023-05-25T15:23:09.718Z,3.67
2023-05-25T15:25:38.344Z,4.25
2023-05-25T15:28:07.098Z,4.00
2023-05-25T15:30:36.554Z,4.38
2023-05-25T15:33:05.299Z,4.47
2023-05-25T15:35:33.900Z,4.00
2023-05-25T15:38:02.979Z,4.10
2023-05-25T15:40:33.729Z,4.30
2023-05-25T15:43:02.245Z,3.83
2023-05-25T15:45:31.039Z,4.22
2023-05-25T15:47:59.480Z,3.95
2023-05-25T15:50:28.236Z,4.25
2023-05-25T15:52:56.997Z,4.18
2023-05-25T15:55:25.970Z,3.85
2023-05-25T15:57:56.244Z,4.00
2023-05-25T16:00:25.051Z,4.05
2023-05-25T16:02:53.767Z,3.72
2023-05-25T16:05:22.237Z,3.95
2023-05-25T16:07:50.740Z,3.97
2023-05-25T16:10:19.213Z,3.70
2023-05-25T16:12:47.632Z,3.95
2023-05-25T16:15:17.770Z,4.75
2023-05-25T16:17:46.335Z,4.00
2023-05-25T16:20:15.099Z,4.00
2023-05-25T16:22:43.621Z,4.00
2023-05-25T16:25:12.363Z,3.80
2023-05-25T16:27:40.982Z,3.47
2023-05-25T16:30:13.072Z,3.92
2023-05-25T16:32:43.341Z,4.05
2023-05-25T16:35:11.870Z,3.83
2023-05-25T16:37:40.357Z,4.03
2023-05-25T16:40:10.921Z,3.75
2023-05-25T16:42:39.256Z,3.70
2023-05-25T16:45:09.285Z,3.83
2023-05-25T16:47:37.663Z,4.20
2023-05-25T16:50:09.743Z,4.15
2023-05-25T16:52:38.134Z,3.95
2023-05-25T16:55:07.769Z,4.40
2023-05-25T16:57:36.318Z,4.30
2023-05-25T17:00:05.378Z,4.30
2023-05-25T17:02:33.825Z,4.20
2023-05-25T17:05:06.618Z,4.28
2023-05-25T17:07:38.010Z,4.38
2023-05-25T17:10:07.890Z,4.10
2023-05-25T17:12:36.606Z,4.10
2023-05-25T17:15:05.506Z,4.55
2023-05-25T17:17:34.148Z,4.32
2023-05-25T17:20:04.409Z,4.20
2023-05-25T17:22:33.103Z,4.35
2023-05-25T17:25:03.695Z,4.53
2023-05-25T17:27:32.648Z,4.60
2023-05-25T17:30:01.124Z,3.88
2023-05-25T17:32:29.827Z,4.45
2023-05-25T17:34:58.314Z,4.60
2023-05-25T17:37:26.871Z,4.32
2023-05-25T17:39:55.513Z,4.70
2023-05-25T17:42:25.623Z,4.50
2023-05-25T17:44:54.324Z,4.43
2023-05-25T17:47:24.051Z,4.85
2023-05-25T17:49:52.882Z,4.38
2023-05-25T17:52:21.542Z,4.20
2023-05-25T17:54:50.181Z,4.22
2023-05-25T17:57:18.665Z,4.88
2023-05-25T17:59:48.598Z,5.03
2023-05-25T18:02:17.377Z,4.70
2023-05-25T18:04:46.156Z,5.32
2023-05-25T18:07:14.721Z,4.97
2023-05-25T18:09:43.079Z,5.00
2023-05-25T18:12:11.810Z,5.30
2023-05-25T18:14:40.516Z,4.93
2023-05-25T18:17:10.597Z,5.40
2023-05-25T18:19:38.993Z,4.57
2023-05-25T18:22:07.599Z,5.15
2023-05-25T18:24:36.607Z,5.13
2023-05-25T18:27:05.345Z,5.10
2023-05-25T18:29:33.937Z,4.95
2023-05-25T18:32:02.524Z,5.72
2023-05-25T18:34:32.666Z,4.93
2023-05-25T18:37:01.365Z,5.30
2023-05-25T18:39:31.111Z,5.10
2023-05-25T18:41:59.693Z,4.97
2023-05-25T18:44:28.576Z,5.40
2023-05-25T18:46:57.126Z,5.70
2023-05-25T18:49:25.539Z,5.53
2023-05-25T18:51:55.793Z,5.05
2023-05-25T18:54:24.264Z,4.60
2023-05-25T18:56:53.023Z,5.10
2023-05-25T18:59:21.606Z,5.75
2023-05-25T19:01:51.843Z,5.68
2023-05-25T19:04:20.543Z,5.20
2023-05-25T19:06:49.043Z,5.57
2023-05-25T19:09:19.043Z,4.93
2023-05-25T19:11:47.626Z,5.68
2023-05-25T19:14:16.289Z,5.13
2023-05-25T19:16:46.040Z,5.45
2023-05-25T19:19:16.812Z,5.47
2023-05-25T19:21:45.487Z,5.93
2023-05-25T19:24:14.126Z,5.90
2023-05-25T19:26:45.007Z,5.50
2023-05-25T19:29:13.592Z,5.97
2023-05-25T19:31:42.021Z,5.95
2023-05-25T19:34:10.576Z,5.50
2023-05-25T19:36:39.083Z,5.75
2023-05-25T19:39:07.860Z,6.05
2023-05-25T19:41:38.015Z,6.05
2023-05-25T19:54:42.222Z,6.03
2023-05-25T19:57:10.673Z,6.00
2023-05-25T19:59:38.965Z,6.03
2023-05-25T20:02:07.732Z,5.90
2023-05-25T20:04:36.878Z,5.88
2023-05-25T20:07:06.485Z,5.38
2023-05-25T20:09:42.396Z,6.63
2023-05-25T20:12:13.876Z,6.30
2023-05-25T20:14:42.511Z,6.38
2023-05-25T20:17:11.047Z,6.70
2023-05-25T20:19:39.612Z,6.03
2023-05-25T20:22:08.637Z,6.15
2023-05-25T20:24:37.020Z,6.43
2023-05-25T20:27:06.350Z,5.68
2023-05-25T20:29:37.459Z,6.43
2023-05-25T20:32:07.383Z,5.75
2023-05-25T20:34:36.196Z,5.63
2023-05-25T20:37:10.248Z,5.72
2023-05-25T20:39:42.459Z,5.47
2023-05-25T20:42:11.821Z,6.40
2023-05-25T20:44:42.508Z,6.50
2023-05-25T20:47:11.422Z,6.20
2023-05-25T20:49:40.798Z,6.30
2023-05-25T20:52:09.227Z,6.35
2023-05-25T20:54:41.897Z,5.90
2023-05-25T20:57:14.542Z,6.03
2023-05-25T20:59:44.519Z,5.65
2023-05-25T21:02:12.974Z,5.95
2023-05-25T21:04:41.486Z,6.32
2023-05-25T21:07:09.921Z,5.78
2023-05-25T21:09:42.516Z,6.00
2023-05-25T21:12:12.371Z,5.93
2023-05-25T21:14:40.757Z,6.25
2023-05-25T21:17:11.135Z,6.85
2023-05-25T21:19:39.552Z,6.75
2023-05-25T21:22:08.146Z,7.55
2023-05-25T21:24:36.689Z,7.80
2023-05-25T21:27:05.875Z,7.07
2023-05-25T21:29:34.614Z,7.93
2023-05-25T21:32:03.159Z,6.75
2023-05-25T21:34:33.231Z,7.30
2023-05-25T21:37:01.782Z,6.70
2023-05-25T21:39:30.519Z,7.15
2023-05-25T21:41:59.044Z,6.88
2023-05-25T21:44:27.862Z,7.05
2023-05-25T21:46:56.209Z,6.90
2023-05-25T21:49:24.780Z,6.90
2023-05-25T21:51:54.800Z,7.15
2023-05-25T21:54:24.240Z,7.20
2023-05-25T21:56:52.898Z,6.60
2023-05-25T21:59:21.886Z,6.05
2023-05-25T22:01:50.647Z,5.97
2023-05-25T22:04:19.825Z,6.63
2023-05-25T22:06:49.413Z,6.63
2023-05-25T22:09:22.065Z,6.28
2023-05-25T22:11:52.213Z,7.15
2023-05-25T22:14:20.746Z,5.65
2023-05-25T22:16:50.163Z,5.28
2023-05-25T22:19:18.949Z,4.85
2023-05-25T22:21:47.646Z,4.90
2023-05-25T22:24:16.498Z,4.88
2023-05-25T22:26:46.559Z,5.10
2023-05-25T22:29:15.105Z,5.10
2023-05-25T22:31:43.776Z,4.60
2023-05-25T22:34:12.494Z,4.30
2023-05-25T22:36:41.099Z,4.05
2023-05-25T22:39:09.790Z,4.57
2023-05-25T22:41:40.829Z,4.38
2023-05-25T22:44:10.669Z,4.32
2023-05-25T22:46:39.391Z,4.30
2023-05-25T22:49:08.225Z,3.78
2023-05-25T22:51:36.835Z,4.13
2023-05-25T22:54:05.542Z,3.83
2023-05-25T22:56:34.388Z,3.55
2023-05-25T22:59:03.105Z,3.83
2023-05-25T23:01:33.570Z,3.38
2023-05-25T23:04:02.328Z,3.40
2023-05-25T23:06:31.376Z,2.92
2023-05-25T23:09:00.145Z,3.17
2023-05-25T23:11:28.990Z,3.13
2023-05-25T23:13:57.345Z,3.30
2023-05-25T23:16:27.086Z,2.88
2023-05-25T23:18:57.701Z,3.40
2023-05-25T23:21:26.230Z,3.30
2023-05-25T23:23:54.866Z,3.15
2023-05-25T23:26:23.444Z,2.95
2023-05-25T23:28:52.048Z,3.00
2023-05-25T23:31:20.682Z,2.65
2023-05-25T23:33:49.680Z,2.70
2023-05-25T23:36:19.946Z,2.70
2023-05-25T23:38:48.576Z,2.28
2023-05-25T23:41:17.237Z,2.65
2023-05-25T23:43:45.824Z,2.35
2023-05-25T23:46:16.570Z,2.70
2023-05-25T23:48:45.869Z,2.38
2023-05-25T23:51:14.398Z,2.33
2023-05-25T23:53:44.556Z,2.47
2023-05-25T23:56:13.244Z,2.42
2023-05-25T23:58:43.227Z,2.63
